createdAt,value
2023-01-22T00:01:13.546Z,12.30
2023-01-22T00:03:42.503Z,14.20
2023-01-22T00:06:14.234Z,14.32
2023-01-22T00:11:27.047Z,12.13
2023-01-22T00:13:54.080Z,10.30
2023-01-22T00:16:21.519Z,12.25
2023-01-22T00:18:48.632Z,11.55
2023-01-22T00:21:16.007Z,11.77
2023-01-22T00:23:42.795Z,12.63
2023-01-22T00:26:15.567Z,11.68
2023-01-22T00:28:45.293Z,10.35
2023-01-22T00:31:16.551Z,13.20
2023-01-22T00:33:44.180Z,12.40
2023-01-22T00:36:16.755Z,14.20
2023-01-22T00:38:44.905Z,37.83
2023-01-22T00:43:58.026Z,17.00
2023-01-22T00:46:25.749Z,10.50
2023-01-22T00:48:54.992Z,13.20
2023-01-22T00:51:22.024Z,11.88
2023-01-22T00:53:48.946Z,10.05
2023-01-22T00:56:16.697Z,8.70
2023-01-22T00:58:46.489Z,10.13
2023-01-22T01:01:15.595Z,10.15
2023-01-22T01:03:43.347Z,9.98
2023-01-22T01:06:16.428Z,11.43
2023-01-22T01:08:44.177Z,10.52
2023-01-22T01:11:16.306Z,11.73
2023-01-22T01:13:43.964Z,8.27
2023-01-22T01:16:15.253Z,8.57
2023-01-22T01:18:42.799Z,10.15
2023-01-22T01:21:14.482Z,8.70
2023-01-22T01:23:42.822Z,8.90
2023-01-22T01:26:14.326Z,10.57
2023-01-22T01:28:42.874Z,9.95
2023-01-22T01:31:12.861Z,8.60
2023-01-22T01:33:40.432Z,9.27
2023-01-22T01:36:35.336Z,7.15
2023-01-22T01:39:09.834Z,9.05
2023-01-22T01:41:36.705Z,8.77
2023-01-22T01:44:23.589Z,9.15
2023-01-22T02:00:10.532Z,8.38
2023-01-22T02:02:37.489Z,9.38
2023-01-22T02:05:06.295Z,8.15
2023-01-22T02:07:33.215Z,8.40
2023-01-22T02:10:07.542Z,9.50
2023-01-22T02:12:34.647Z,9.95
2023-01-22T02:15:03.884Z,8.13
2023-01-22T02:17:30.939Z,7.90
2023-01-22T02:22:36.149Z,8.00
2023-01-22T02:25:03.170Z,5.05
2023-01-22T02:30:15.611Z,5.07
2023-01-22T02:32:42.540Z,5.20
2023-01-22T02:35:09.520Z,5.10
2023-01-22T02:37:36.365Z,6.18
2023-01-22T02:40:03.463Z,5.78
2023-01-22T02:42:30.642Z,6.35
2023-01-22T02:44:57.502Z,5.85
2023-01-22T02:47:24.323Z,5.25
2023-01-22T02:49:51.127Z,5.53
2023-01-22T02:52:18.059Z,5.22
2023-01-22T02:54:44.849Z,4.50
2023-01-22T02:57:12.197Z,4.80
2023-01-22T02:59:39.059Z,4.70
2023-01-22T03:02:05.938Z,4.63
2023-01-22T03:04:32.871Z,4.82
2023-01-22T03:06:59.752Z,4.97
2023-01-22T03:09:26.600Z,3.70
2023-01-22T03:11:53.809Z,3.75
2023-01-22T03:14:28.082Z,4.07
2023-01-22T03:17:14.573Z,3.20
2023-01-22T03:31:00.261Z,2.85
2023-01-22T03:33:27.745Z,2.75
2023-01-22T03:36:00.818Z,2.38
2023-01-22T03:38:28.271Z,2.33
2023-01-22T03:41:05.848Z,2.25
2023-01-22T03:43:33.608Z,2.63
2023-01-22T03:46:06.084Z,2.08
2023-01-22T03:48:33.891Z,2.08
2023-01-22T03:51:27.506Z,2.33
2023-01-22T03:53:54.706Z,1.92
2023-01-22T03:59:07.195Z,2.15
2023-01-22T04:01:34.488Z,1.98
2023-01-22T04:06:46.602Z,1.88
2023-01-22T04:12:13.688Z,1.83
2023-01-22T04:17:56.739Z,1.77
2023-01-22T04:20:23.594Z,1.92
2023-01-22T04:28:12.174Z,2.17
2023-01-22T04:30:39.736Z,1.73
2023-01-22T04:33:06.893Z,2.42
2023-01-22T04:38:14.338Z,2.30
2023-01-22T04:40:41.569Z,2.17
2023-01-22T04:43:09.925Z,2.35
2023-01-22T04:45:37.250Z,2.20
2023-01-22T04:48:04.550Z,2.10
2023-01-22T04:50:33.352Z,1.95
2023-01-22T04:55:35.608Z,2.30
2023-01-22T04:58:02.582Z,2.30
2023-01-22T05:00:30.592Z,2.30
2023-01-22T05:02:59.664Z,3.50
2023-01-22T05:05:27.495Z,4.22
2023-01-22T05:07:54.599Z,2.97
2023-01-22T05:10:22.263Z,2.63
2023-01-22T05:12:49.496Z,2.15
2023-01-22T05:15:24.060Z,2.08
2023-01-22T05:17:53.283Z,1.77
2023-01-22T05:22:55.904Z,1.38
2023-01-22T05:25:23.178Z,1.95
2023-01-22T05:30:18.957Z,2.05
2023-01-22T05:32:46.515Z,2.25
2023-01-22T05:35:13.426Z,2.05
2023-01-22T05:37:40.275Z,1.92
2023-01-22T05:40:08.062Z,1.50
2023-01-22T05:42:34.874Z,2.10
2023-01-22T05:45:01.736Z,2.40
2023-01-22T05:55:32.611Z,1.73
2023-01-22T05:57:59.523Z,2.45
2023-01-22T06:00:26.616Z,3.28
2023-01-22T06:02:58.234Z,4.20
2023-01-22T06:07:53.553Z,3.03
2023-01-22T06:18:26.896Z,2.78
2023-01-22T06:20:57.883Z,2.47
2023-01-22T06:23:27.056Z,2.67
2023-01-22T06:25:55.166Z,3.47
2023-01-22T06:28:23.272Z,2.78
2023-01-22T06:30:50.759Z,3.83
2023-01-22T06:33:17.617Z,3.08
2023-01-22T06:41:05.288Z,1.80
2023-01-22T06:43:32.723Z,2.50
2023-01-22T06:45:59.602Z,2.17
2023-01-22T06:48:26.374Z,1.70
2023-01-22T06:50:57.915Z,2.00
2023-01-22T06:56:09.634Z,1.83
2023-01-22T06:58:36.593Z,1.88
2023-01-22T07:01:05.590Z,3.30
2023-01-22T07:03:32.616Z,2.60
2023-01-22T07:06:02.072Z,3.40
2023-01-22T07:08:30.699Z,6.03
2023-01-22T07:10:57.801Z,6.30
2023-01-22T07:13:25.219Z,2.92
2023-01-22T07:15:52.212Z,4.68
2023-01-22T07:18:21.075Z,5.35
2023-01-22T07:20:47.992Z,3.53
2023-01-22T07:23:14.900Z,4.85
2023-01-22T07:25:42.595Z,4.28
2023-01-22T07:28:12.721Z,4.10
2023-01-22T07:30:42.395Z,7.25
2023-01-22T07:33:11.760Z,7.55
2023-01-22T07:35:39.018Z,5.22
2023-01-22T07:38:06.267Z,2.88
2023-01-22T07:40:33.370Z,3.55
2023-01-22T07:51:07.252Z,5.60
2023-01-22T07:59:31.902Z,6.88
2023-01-22T08:01:58.826Z,6.03
2023-01-22T08:04:25.846Z,7.40
2023-01-22T08:06:56.266Z,10.77
2023-01-22T08:11:58.514Z,6.78
2023-01-22T08:14:28.270Z,9.63
2023-01-22T08:19:29.547Z,9.15
2023-01-22T08:24:31.824Z,7.68
2023-01-22T08:26:59.138Z,11.68
2023-01-22T08:29:25.965Z,10.13
2023-01-22T08:31:56.219Z,11.82
2023-01-22T08:34:23.179Z,14.00
2023-01-22T08:36:50.499Z,16.30
2023-01-22T08:39:17.671Z,13.93
2023-01-22T08:41:44.584Z,10.82
2023-01-22T08:44:14.754Z,12.02
2023-01-22T08:46:41.647Z,10.73
2023-01-22T08:49:08.766Z,9.13
2023-01-22T08:51:35.876Z,14.68
2023-01-22T08:54:02.764Z,15.70
2023-01-22T08:56:29.779Z,13.02
2023-01-22T08:59:00.106Z,6.03
2023-01-22T09:01:27.708Z,12.38
2023-01-22T09:03:55.078Z,10.48
2023-01-22T09:06:23.295Z,9.75
2023-01-22T09:08:50.145Z,9.35
2023-01-22T09:11:17.522Z,6.65
2023-01-22T09:13:46.950Z,8.35
2023-01-22T09:16:14.430Z,8.25
2023-01-22T09:18:41.703Z,7.90
2023-01-22T09:21:12.995Z,9.75
2023-01-22T09:23:43.344Z,9.80
2023-01-22T09:26:11.032Z,9.77
2023-01-22T09:28:41.464Z,5.93
2023-01-22T09:31:17.858Z,5.93
2023-01-22T09:33:53.994Z,9.45
2023-01-22T09:36:24.250Z,14.98
2023-01-22T09:38:51.731Z,8.23
2023-01-22T09:41:41.326Z,13.00
2023-01-22T09:44:22.483Z,10.95
2023-01-22T09:46:56.243Z,8.33
2023-01-22T09:49:35.151Z,8.93
2023-01-22T09:52:10.955Z,9.55
2023-01-22T09:54:40.365Z,13.85
2023-01-22T09:57:29.930Z,12.63
2023-01-22T09:59:58.543Z,11.63
2023-01-22T10:02:48.683Z,12.88
2023-01-22T10:05:49.604Z,14.05
2023-01-22T10:08:54.900Z,10.88
2023-01-22T10:14:06.328Z,13.25
2023-01-22T10:16:34.301Z,13.52
2023-01-22T10:19:27.662Z,12.77
2023-01-22T10:22:14.251Z,10.35
2023-01-22T10:24:46.754Z,13.75
2023-01-22T10:27:25.236Z,10.35
2023-01-22T10:30:01.365Z,9.30
2023-01-22T10:32:36.310Z,9.85
2023-01-22T10:35:43.259Z,9.93
2023-01-22T10:38:22.007Z,10.60
2023-01-22T10:40:54.949Z,8.43
2023-01-22T10:43:22.071Z,9.07
2023-01-22T10:45:59.665Z,8.13
2023-01-22T10:48:26.739Z,9.57
2023-01-22T10:51:16.062Z,8.10
2023-01-22T10:53:54.588Z,9.65
2023-01-22T10:56:40.448Z,10.32
2023-01-22T10:59:40.960Z,9.57
2023-01-22T11:02:23.890Z,7.80
2023-01-22T11:09:22.297Z,8.48
2023-01-22T11:12:02.924Z,9.73
2023-01-22T11:20:33.504Z,13.10
2023-01-22T11:23:13.351Z,12.68
2023-01-22T11:31:18.776Z,16.55
2023-01-22T11:37:14.317Z,9.93
2023-01-22T11:40:02.772Z,9.40
2023-01-22T11:51:19.278Z,11.43
2023-01-22T11:53:59.864Z,13.43
2023-01-22T11:59:33.617Z,16.23
2023-01-22T12:07:54.599Z,6.57
2023-01-22T12:10:27.569Z,9.43
2023-01-22T12:19:15.714Z,5.70
2023-01-22T12:21:52.994Z,5.32
2023-01-22T12:24:27.870Z,8.85
2023-01-22T12:27:22.620Z,7.20
2023-01-22T12:32:37.995Z,6.03
2023-01-22T12:35:16.573Z,6.28
2023-01-22T12:38:04.706Z,6.25
2023-01-22T13:05:45.665Z,10.20
2023-01-22T13:08:21.665Z,13.60
2023-01-22T13:10:54.978Z,11.68
2023-01-22T13:13:33.060Z,9.18
2023-01-22T13:16:05.075Z,13.35
2023-01-22T13:18:39.472Z,8.80
2023-01-22T13:23:47.413Z,13.30
2023-01-22T13:34:21.261Z,17.95
2023-01-22T13:36:50.610Z,13.40
2023-01-22T13:39:22.173Z,11.48
2023-01-22T13:50:03.064Z,12.13
2023-01-22T13:57:54.639Z,7.45
2023-01-22T14:06:51.602Z,13.73
2023-01-22T14:09:31.260Z,16.42
2023-01-22T14:14:44.572Z,8.45
2023-01-22T14:20:13.961Z,9.02
2023-01-22T14:25:31.715Z,11.90
2023-01-22T14:28:00.158Z,10.23
2023-01-22T14:30:28.178Z,11.45
2023-01-22T14:47:36.040Z,10.90
2023-01-22T14:52:49.258Z,9.82
2023-01-22T14:55:16.324Z,11.50
2023-01-22T14:57:43.256Z,9.48
2023-01-22T15:00:14.319Z,10.55
2023-01-22T15:02:41.826Z,8.20
2023-01-22T15:05:10.127Z,9.23
2023-01-22T15:07:38.212Z,8.38
2023-01-22T15:10:07.613Z,9.25
2023-01-22T15:12:34.933Z,11.88
2023-01-22T15:17:47.484Z,14.95
2023-01-22T15:20:15.036Z,13.18
2023-01-22T15:30:50.361Z,18.33
2023-01-22T15:33:17.208Z,13.98
2023-01-22T15:38:57.027Z,30.77
2023-01-22T15:41:30.981Z,32.08
2023-01-22T15:46:43.547Z,33.00
2023-01-22T15:49:12.439Z,36.22
2023-01-22T15:51:41.015Z,61.72
2023-01-22T15:54:08.825Z,40.85
2023-01-22T16:01:56.415Z,16.08
2023-01-22T16:04:23.469Z,16.85
2023-01-22T16:06:51.662Z,16.13
2023-01-22T16:12:20.060Z,16.30
2023-01-22T16:14:47.534Z,14.73
2023-01-22T16:17:14.941Z,13.18
2023-01-22T16:19:42.326Z,16.27
2023-01-22T16:30:25.798Z,16.02
2023-01-22T16:32:53.555Z,23.00
2023-01-22T16:35:20.592Z,22.42
2023-01-22T16:37:47.486Z,16.52
2023-01-22T16:40:18.588Z,23.67
2023-01-22T16:50:58.689Z,21.95
2023-01-22T16:53:25.828Z,17.38
2023-01-22T16:55:52.805Z,19.88
2023-01-22T16:58:22.519Z,28.75
2023-01-22T17:03:24.854Z,37.20
2023-01-22T17:05:54.904Z,37.95
2023-01-22T17:13:42.328Z,30.08
2023-01-22T17:16:41.985Z,28.30
2023-01-22T17:29:55.780Z,18.83
2023-01-22T17:32:26.642Z,25.90
2023-01-22T17:34:53.894Z,28.42
2023-01-22T17:46:33.041Z,26.75
2023-01-22T17:52:09.203Z,23.30
2023-01-22T18:00:10.199Z,17.65
2023-01-22T18:10:53.800Z,17.15
2023-01-22T18:13:26.089Z,21.00
2023-01-22T18:15:53.538Z,18.40
2023-01-22T18:18:20.620Z,20.77
2023-01-22T18:20:48.022Z,17.85
2023-01-22T18:23:16.187Z,19.23
2023-01-22T18:28:46.399Z,20.10
2023-01-22T18:34:05.456Z,40.97
2023-01-22T18:39:35.085Z,28.95
2023-01-22T18:42:03.212Z,28.08
2023-01-22T18:44:30.240Z,26.05
2023-01-22T18:46:59.373Z,19.08
2023-01-22T18:49:28.139Z,17.73
2023-01-22T18:51:59.268Z,20.40
2023-01-22T18:54:26.322Z,17.98
2023-01-22T18:56:53.532Z,18.67
2023-01-22T19:00:10.744Z,22.70
2023-01-22T19:02:37.825Z,16.20
2023-01-22T19:05:08.831Z,16.15
2023-01-22T19:07:38.176Z,17.38
2023-01-22T19:10:08.874Z,16.52
2023-01-22T19:12:35.700Z,16.80
2023-01-22T19:15:02.669Z,15.13
2023-01-22T19:17:29.473Z,16.17
2023-01-22T19:22:31.892Z,15.55
2023-01-22T19:25:08.826Z,19.42
2023-01-22T19:33:06.898Z,16.02
2023-01-22T19:43:56.000Z,18.55
2023-01-22T19:46:25.572Z,15.38
2023-01-22T19:48:53.708Z,19.05
2023-01-22T19:53:56.106Z,16.65
2023-01-22T19:56:25.891Z,13.45
2023-01-22T19:58:57.334Z,16.42
2023-01-22T20:01:24.210Z,12.45
2023-01-22T20:03:52.981Z,11.10
2023-01-22T20:06:20.073Z,10.30
2023-01-22T20:08:47.386Z,11.40
2023-01-22T20:11:14.527Z,12.00
2023-01-22T20:16:31.356Z,10.77
2023-01-22T20:22:04.499Z,12.75
2023-01-22T20:24:31.396Z,13.02
2023-01-22T20:26:58.933Z,13.25
2023-01-22T20:32:01.191Z,11.60
2023-01-22T20:37:06.566Z,15.13
2023-01-22T20:39:33.418Z,12.48
2023-01-22T20:45:27.390Z,9.25
2023-01-22T20:51:15.700Z,8.95
2023-01-22T20:59:25.475Z,7.55
2023-01-22T21:07:50.045Z,7.35
2023-01-22T21:10:17.280Z,8.65
2023-01-22T21:12:46.694Z,8.55
2023-01-22T21:17:59.267Z,8.32
2023-01-22T21:20:37.678Z,8.00
2023-01-22T21:25:52.998Z,9.50
2023-01-22T21:30:52.536Z,8.18
2023-01-22T21:33:22.389Z,7.93
2023-01-22T21:35:55.936Z,6.70
2023-01-22T21:41:12.305Z,8.60
2023-01-22T21:43:43.451Z,6.57
2023-01-22T21:46:22.817Z,6.18
2023-01-22T21:48:50.013Z,4.88
2023-01-22T21:53:57.269Z,4.97
2023-01-22T21:56:25.452Z,4.72
2023-01-22T21:58:52.701Z,4.32
2023-01-22T22:04:06.172Z,18.67
2023-01-22T22:06:33.992Z,4.75
2023-01-22T22:09:03.737Z,3.72
2023-01-22T22:14:07.575Z,5.47
2023-01-22T22:16:35.914Z,3.47
2023-01-22T22:19:02.879Z,3.80
2023-01-22T22:21:30.665Z,5.07
2023-01-22T22:23:58.332Z,4.25
2023-01-22T22:26:25.987Z,5.47
2023-01-22T22:28:53.491Z,4.35
2023-01-22T22:31:28.460Z,4.15
2023-01-22T22:36:58.024Z,4.90
2023-01-22T22:42:14.063Z,4.53
2023-01-22T22:44:41.006Z,4.70
2023-01-22T22:50:02.877Z,4.82
2023-01-22T22:52:40.042Z,4.78
2023-01-22T23:00:28.647Z,7.47
2023-01-22T23:02:56.135Z,7.20
2023-01-22T23:05:22.947Z,7.63
2023-01-22T23:07:50.511Z,7.47
2023-01-22T23:14:16.380Z,8.02
2023-01-22T23:19:55.984Z,7.82
2023-01-22T23:27:56.973Z,13.68
2023-01-22T23:33:27.030Z,12.38
2023-01-22T23:39:21.558Z,11.27
2023-01-22T23:44:51.101Z,10.45
